Time;durP1;ratioP1;P1;durP2;ratioP2;P2;SDS_P1;SDS_P2;PMS_P1;PMS_P2;Temp;Humidity;BMP_temperature;BMP_pressure;BME280_temperature;BME280_humidity;BME280_pressure;Samples;Min_cycle;Max_cycle;Signal;HPM_P1;HPM_P2
2022/11/13 00:00:05;;;;;;;18.83;13.52;;;12.60;99.90;;;;;;5070251;28;20042;-65
2022/11/13 00:02:33;;;;;;;24.52;14.85;;;12.70;99.90;;;;;;5088739;28;20052;-65
2022/11/13 00:05:00;;;;;;;22.65;14.40;;;12.70;99.90;;;;;;5088596;28;20067;-65
2022/11/13 00:07:27;;;;;;;21.30;14.13;;;12.70;99.90;;;;;;5087623;28;20560;-66
2022/11/13 00:09:54;;;;;;;22.05;14.85;;;12.70;99.90;;;;;;5089432;28;20051;-65
2022/11/13 00:12:20;;;;;;;21.38;15.35;;;12.70;99.90;;;;;;5090070;28;20063;-66
2022/11/13 00:14:47;;;;;;;19.75;12.95;;;12.70;99.90;;;;;;5090240;28;20048;-64
2022/11/13 00:17:14;;;;;;;19.70;14.18;;;12.70;99.90;;;;;;5072326;28;20048;-65
2022/11/13 00:19:44;;;;;;;21.10;14.13;;;12.70;99.90;;;;;;5088731;28;20156;-65
2022/11/13 00:22:10;;;;;;;21.58;14.52;;;12.70;99.90;;;;;;5089942;28;20503;-65
2022/11/13 00:24:37;;;;;;;23.70;15.32;;;12.70;99.90;;;;;;5089927;28;20055;-66
2022/11/13 00:27:04;;;;;;;19.05;14.05;;;12.70;99.90;;;;;;5090167;28;20052;-65
2022/11/13 00:29:31;;;;;;;19.73;13.23;;;12.80;99.90;;;;;;5072351;28;20406;-65
2022/11/13 00:31:58;;;;;;;24.08;13.88;;;12.80;99.90;;;;;;5090382;28;20040;-66
2022/11/13 00:34:25;;;;;;;26.80;13.63;;;12.70;99.90;;;;;;5054896;28;20541;-65
2022/11/13 00:37:15;;;;;;;21.67;13.82;;;12.70;99.90;;;;;;5081274;28;20495;-65
2022/11/13 00:39:42;;;;;;;20.55;13.48;;;12.70;99.90;;;;;;5090241;28;20051;-65
2022/11/13 00:42:09;;;;;;;19.52;13.32;;;12.70;99.90;;;;;;5078628;28;20044;-65
2022/11/13 00:44:36;;;;;;;20.67;12.98;;;12.70;99.90;;;;;;5088056;28;20055;-65
2022/11/13 00:47:02;;;;;;;16.55;11.95;;;12.70;99.90;;;;;;5088332;28;20474;-64
2022/11/13 00:49:29;;;;;;;17.33;12.80;;;12.70;99.90;;;;;;5089856;28;20488;-65
2022/11/13 00:51:59;;;;;;;21.85;13.32;;;12.70;99.90;;;;;;5089658;28;20517;-64
2022/11/13 00:54:25;;;;;;;21.08;11.98;;;12.70;99.90;;;;;;5088996;28;20044;-65
2022/11/13 00:56:52;;;;;;;16.13;11.65;;;12.70;99.90;;;;;;5092490;28;20087;-65
2022/11/13 00:59:19;;;;;;;20.42;13.27;;;12.70;99.90;;;;;;5093940;28;20051;-65
2022/11/13 01:01:46;;;;;;;18.27;12.95;;;12.70;99.90;;;;;;5092122;28;20080;-65
2022/11/13 01:04:13;;;;;;;17.25;13.52;;;12.70;99.90;;;;;;5093933;28;20392;-65
2022/11/13 01:06:39;;;;;;;21.40;12.32;;;12.80;99.90;;;;;;5093491;28;20058;-65
2022/11/13 01:09:08;;;;;;;22.27;14.25;;;12.80;99.90;;;;;;5093192;28;20636;-64
2022/11/13 01:11:35;;;;;;;20.52;12.43;;;12.80;99.90;;;;;;5094701;28;20068;-64
2022/11/13 01:14:02;;;;;;;21.15;13.02;;;12.70;99.90;;;;;;5077741;28;20044;-65
2022/11/13 01:16:29;;;;;;;18.58;12.73;;;12.70;99.90;;;;;;5096453;28;20052;-64
2022/11/13 01:18:56;;;;;;;20.67;13.55;;;12.70;99.90;;;;;;5097122;28;20059;-65
2022/11/13 01:21:24;;;;;;;18.60;11.80;;;12.70;99.90;;;;;;5097645;28;20142;-65
2022/11/13 01:23:52;;;;;;;17.27;11.50;;;12.70;99.90;;;;;;5098920;28;20067;-65
2022/11/13 01:26:20;;;;;;;16.92;12.27;;;12.70;99.90;;;;;;5096854;28;20123;-65
2022/11/13 01:28:47;;;;;;;21.13;13.27;;;12.70;99.90;;;;;;5089107;28;20084;-65
2022/11/13 01:31:16;;;;;;;17.83;13.00;;;12.80;99.90;;;;;;5092451;28;20048;-64
2022/11/13 01:33:44;;;;;;;19.20;12.77;;;12.80;99.90;;;;;;5093812;28;20177;-65
2022/11/13 01:36:21;;;;;;;20.17;13.18;;;12.80;99.90;;;;;;5093563;28;20581;-64
2022/11/13 01:38:49;;;;;;;17.55;13.10;;;12.80;99.90;;;;;;5094332;28;20051;-66
2022/11/13 01:41:29;;;;;;;19.52;12.80;;;12.80;99.90;;;;;;5092236;28;20044;-65
2022/11/13 01:43:56;;;;;;;23.15;12.52;;;12.80;99.90;;;;;;5090187;28;20079;-66
2022/11/13 01:46:25;;;;;;;22.90;13.27;;;12.80;99.90;;;;;;5091421;28;20463;-64
2022/11/13 01:49:10;;;;;;;21.80;12.82;;;12.70;99.90;;;;;;5074963;28;20132;-65
2022/11/13 01:52:13;;;;;;;20.85;13.02;;;12.80;99.90;;;;;;5092115;28;20139;-65
2022/11/13 01:54:49;;;;;;;19.52;12.52;;;12.80;99.90;;;;;;5071041;28;20499;-65
2022/11/13 01:57:16;;;;;;;20.67;13.02;;;12.80;99.90;;;;;;5075674;28;20044;-65
2022/11/13 01:59:45;;;;;;;16.27;11.93;;;12.80;99.90;;;;;;5091420;28;20048;-64
2022/11/13 02:02:12;;;;;;;17.38;11.30;;;12.80;99.90;;;;;;5090858;28;20050;-66
2022/11/13 02:04:39;;;;;;;22.15;12.55;;;12.70;99.90;;;;;;5092211;28;20055;-65
2022/11/13 02:07:10;;;;;;;20.42;11.43;;;12.70;99.90;;;;;;5073558;28;20126;-64
2022/11/13 02:09:39;;;;;;;16.77;10.40;;;12.70;99.90;;;;;;5070836;28;20048;-64
2022/11/13 02:12:12;;;;;;;22.20;12.68;;;12.70;99.90;;;;;;5071040;28;20079;-64
2022/11/13 02:14:40;;;;;;;17.13;12.10;;;12.70;99.90;;;;;;5090094;28;20101;-64
2022/11/13 02:17:08;;;;;;;17.17;11.57;;;12.80;99.90;;;;;;5091154;28;20434;-64
2022/11/13 02:19:41;;;;;;;18.73;12.23;;;12.80;99.90;;;;;;5090480;28;20052;-65
2022/11/13 02:22:17;;;;;;;17.27;11.33;;;12.70;99.90;;;;;;5074914;28;20388;-64
2022/11/13 02:24:44;;;;;;;22.50;12.85;;;12.70;99.90;;;;;;5091794;28;20055;-65
2022/11/13 02:27:39;;;;;;;21.92;12.05;;;12.70;99.90;;;;;;5075153;28;20683;-65
2022/11/13 02:30:13;;;;;;;18.65;11.30;;;12.70;99.90;;;;;;5077338;28;20131;-65
2022/11/13 02:32:44;;;;;;;14.13;9.73;;;12.60;99.90;;;;;;5073892;28;20044;-65
2022/11/13 02:35:15;;;;;;;16.45;11.98;;;12.50;99.90;;;;;;5072733;28;20577;-66
2022/11/13 02:37:42;;;;;;;17.00;11.27;;;12.50;99.90;;;;;;5090917;28;20050;-65
2022/11/13 02:40:09;;;;;;;19.70;11.02;;;12.50;99.90;;;;;;5090075;28;20040;-64
2022/11/13 02:42:36;;;;;;;18.17;11.70;;;12.40;99.90;;;;;;5090280;28;20044;-65
2022/11/13 02:45:06;;;;;;;18.58;11.45;;;12.40;99.90;;;;;;5090977;28;20481;-64
2022/11/13 02:47:32;;;;;;;16.23;10.80;;;12.30;99.90;;;;;;5089585;28;20048;-65
2022/11/13 02:49:59;;;;;;;15.35;11.30;;;12.30;99.90;;;;;;5090654;28;20046;-64
2022/11/13 02:52:26;;;;;;;16.95;11.57;;;12.30;99.90;;;;;;5091296;28;20046;-65
2022/11/13 02:54:53;;;;;;;19.42;10.27;;;12.20;99.90;;;;;;5090348;28;20076;-64
2022/11/13 02:57:20;;;;;;;16.02;10.43;;;12.10;99.90;;;;;;5090000;28;20066;-65
2022/11/13 02:59:46;;;;;;;16.25;10.70;;;12.10;99.90;;;;;;5090957;28;20040;-64
2022/11/13 03:02:13;;;;;;;18.33;12.05;;;12.00;99.90;;;;;;5090986;28;20074;-65
2022/11/13 03:04:40;;;;;;;18.67;11.73;;;12.00;99.90;;;;;;5089526;28;20421;-65
2022/11/13 03:07:27;;;;;;;18.25;11.07;;;12.00;99.90;;;;;;5056408;28;20049;-65
2022/11/13 03:09:53;;;;;;;19.75;11.27;;;11.90;99.90;;;;;;5078366;28;20048;-64
2022/11/13 03:12:20;;;;;;;17.77;10.52;;;11.80;99.90;;;;;;5089780;28;20094;-65
2022/11/13 03:14:47;;;;;;;21.05;11.40;;;11.80;99.90;;;;;;5090889;28;20048;-64
2022/11/13 03:17:14;;;;;;;19.80;11.77;;;11.80;99.90;;;;;;5089844;28;20124;-65
2022/11/13 03:19:41;;;;;;;21.95;11.73;;;11.80;99.90;;;;;;5089515;28;20136;-65
2022/11/13 03:22:07;;;;;;;21.27;11.43;;;11.70;99.90;;;;;;5089205;28;20127;-65
2022/11/13 03:24:34;;;;;;;18.95;10.80;;;11.80;99.90;;;;;;5089962;28;20047;-66
2022/11/13 03:27:01;;;;;;;17.83;11.32;;;11.70;99.90;;;;;;5089866;28;20135;-65
2022/11/13 03:29:28;;;;;;;23.65;11.18;;;11.80;99.90;;;;;;5091185;28;20044;-65
2022/11/13 03:31:54;;;;;;;17.55;11.07;;;11.80;99.90;;;;;;5090850;28;20052;-65
2022/11/13 03:34:21;;;;;;;17.48;11.70;;;11.80;99.90;;;;;;5090693;28;20131;-64
2022/11/13 03:36:48;;;;;;;19.77;11.38;;;11.80;99.90;;;;;;5090693;28;20556;-64
2022/11/13 03:39:15;;;;;;;15.82;9.32;;;11.80;99.90;;;;;;5090798;28;20525;-64
2022/11/13 03:41:42;;;;;;;17.27;10.15;;;11.90;99.90;;;;;;5090340;28;20043;-66
2022/11/13 03:44:09;;;;;;;17.92;10.10;;;12.00;99.90;;;;;;5090765;28;20094;-64
2022/11/13 03:46:35;;;;;;;13.68;10.02;;;12.00;99.90;;;;;;5089286;28;20040;-64
2022/11/13 03:49:02;;;;;;;17.50;11.20;;;12.00;99.90;;;;;;5090502;28;20044;-64
2022/11/13 03:51:29;;;;;;;17.52;9.98;;;12.10;99.90;;;;;;5089439;28;20078;-64
2022/11/13 03:53:56;;;;;;;14.77;9.18;;;12.10;99.90;;;;;;5090661;28;20116;-64
2022/11/13 03:56:22;;;;;;;14.93;9.32;;;12.10;99.90;;;;;;5089158;28;20131;-64
2022/11/13 03:58:49;;;;;;;18.33;10.18;;;12.10;99.90;;;;;;5090390;28;20447;-64
2022/11/13 04:01:16;;;;;;;16.50;10.82;;;12.10;99.90;;;;;;5090162;28;20051;-64
2022/11/13 04:03:43;;;;;;;19.85;10.48;;;12.20;99.90;;;;;;5088091;28;20402;-66
2022/11/13 04:06:09;;;;;;;20.67;10.32;;;12.20;99.90;;;;;;5085487;28;20074;-67
2022/11/13 04:08:36;;;;;;;13.32;9.07;;;12.20;99.90;;;;;;5089495;28;20044;-65
2022/11/13 04:11:10;;;;;;;16.67;10.27;;;12.20;99.90;;;;;;5090311;28;20047;-65
2022/11/13 04:13:36;;;;;;;17.98;9.90;;;12.20;99.90;;;;;;5089107;28;20487;-66
2022/11/13 04:16:03;;;;;;;17.98;11.02;;;12.20;99.90;;;;;;5072471;28;20052;-65
2022/11/13 04:18:30;;;;;;;15.63;9.80;;;12.30;99.90;;;;;;5090595;28;20054;-66
2022/11/13 04:21:01;;;;;;;20.83;10.25;;;12.20;99.90;;;;;;5088875;28;20071;-65
2022/11/13 04:23:28;;;;;;;18.90;10.32;;;12.20;99.90;;;;;;5088581;28;20052;-66
2022/11/13 04:25:55;;;;;;;16.88;9.70;;;12.20;99.90;;;;;;5070227;28;20119;-65
2022/11/13 04:28:22;;;;;;;17.40;10.48;;;12.20;99.90;;;;;;5083658;28;20069;-66
2022/11/13 04:30:48;;;;;;;14.68;9.63;;;12.20;99.90;;;;;;5091733;28;20052;-66
2022/11/13 04:33:15;;;;;;;15.43;10.43;;;12.20;99.90;;;;;;5094187;28;20105;-63
2022/11/13 04:35:44;;;;;;;19.80;10.45;;;12.20;99.90;;;;;;5076285;28;20044;-65
2022/11/13 04:38:11;;;;;;;17.20;10.98;;;12.20;99.90;;;;;;5093901;28;20036;-66
2022/11/13 04:40:39;;;;;;;16.90;9.57;;;12.10;99.90;;;;;;5092963;28;20093;-64
2022/11/13 04:43:05;;;;;;;15.10;8.75;;;12.10;99.90;;;;;;5093328;28;20044;-65
2022/11/13 04:45:32;;;;;;;17.63;10.75;;;12.20;99.90;;;;;;5094186;28;20055;-65
2022/11/13 04:47:59;;;;;;;18.48;11.05;;;12.10;99.90;;;;;;5094056;28;20169;-65
2022/11/13 04:50:26;;;;;;;22.85;10.52;;;12.10;99.90;;;;;;5076250;28;20123;-65
2022/11/13 04:52:53;;;;;;;18.02;10.57;;;12.10;99.90;;;;;;5093671;28;20050;-66
2022/11/13 04:55:20;;;;;;;17.42;10.15;;;12.10;99.90;;;;;;5092769;28;20051;-66
2022/11/13 04:57:50;;;;;;;23.75;10.15;;;12.10;99.90;;;;;;5093491;28;20047;-65
2022/11/13 05:00:17;;;;;;;15.88;9.90;;;12.10;99.90;;;;;;5093609;28;20047;-65
2022/11/13 05:02:44;;;;;;;18.30;10.35;;;12.10;99.90;;;;;;5093884;28;20044;-65
2022/11/13 05:05:10;;;;;;;27.50;10.32;;;12.10;99.90;;;;;;5093459;28;20044;-65
2022/11/13 05:07:37;;;;;;;16.65;10.82;;;12.10;99.90;;;;;;5092401;28;20059;-66
2022/11/13 05:10:04;;;;;;;17.58;10.40;;;12.10;99.90;;;;;;5091933;28;20061;-65
2022/11/13 05:12:31;;;;;;;16.98;10.70;;;12.10;99.90;;;;;;5092284;28;20127;-65
2022/11/13 05:14:58;;;;;;;16.35;10.10;;;12.10;99.90;;;;;;5091715;28;20050;-65
2022/11/13 05:17:25;;;;;;;14.68;10.20;;;12.10;99.90;;;;;;5093058;28;20491;-66
2022/11/13 05:19:51;;;;;;;15.35;10.63;;;12.10;99.90;;;;;;5092631;28;20083;-65
2022/11/13 05:22:18;;;;;;;21.60;11.45;;;12.10;99.90;;;;;;5091808;28;20057;-65
2022/11/13 05:24:45;;;;;;;17.02;10.07;;;12.10;99.90;;;;;;5093264;28;20047;-65
2022/11/13 05:27:12;;;;;;;14.23;9.60;;;12.10;99.90;;;;;;5094153;28;20059;-66
2022/11/13 05:29:43;;;;;;;16.52;10.85;;;12.10;99.90;;;;;;5093883;28;20048;-66
2022/11/13 05:32:10;;;;;;;17.80;10.38;;;12.10;99.90;;;;;;5092617;28;20055;-65
2022/11/13 05:34:37;;;;;;;17.75;10.80;;;12.10;99.90;;;;;;5091974;28;20131;-65
2022/11/13 05:37:03;;;;;;;19.85;11.15;;;12.10;99.90;;;;;;5093295;28;20127;-67
2022/11/13 05:39:30;;;;;;;22.60;11.82;;;12.10;99.90;;;;;;5093141;28;20036;-63
2022/11/13 05:41:57;;;;;;;16.95;10.77;;;12.10;99.90;;;;;;5091966;28;20418;-64
2022/11/13 05:44:24;;;;;;;19.00;10.98;;;12.10;99.90;;;;;;5092508;28;20070;-65
2022/11/13 05:46:50;;;;;;;16.98;10.45;;;12.00;99.90;;;;;;5092411;28;20153;-64
2022/11/13 05:49:19;;;;;;;21.33;8.52;;;12.00;99.90;;;;;;5092243;28;20040;-64
2022/11/13 05:51:45;;;;;;;20.90;9.27;;;11.90;99.90;;;;;;5091447;28;20136;-64
2022/11/13 05:54:12;;;;;;;14.93;10.15;;;11.90;99.90;;;;;;5091042;28;20048;-65
2022/11/13 05:56:39;;;;;;;17.55;8.70;;;12.00;99.90;;;;;;5073009;28;20056;-65
2022/11/13 05:59:06;;;;;;;15.77;9.38;;;12.00;99.90;;;;;;5090519;28;20119;-64
2022/11/13 06:01:37;;;;;;;18.58;9.25;;;12.00;99.90;;;;;;5094713;28;20127;-64
2022/11/13 06:04:04;;;;;;;19.45;8.25;;;12.00;99.90;;;;;;5106543;28;20179;-65
2022/11/13 06:06:31;;;;;;;26.05;9.68;;;12.00;99.90;;;;;;5076802;28;20052;-65
2022/11/13 06:09:00;;;;;;;18.55;9.57;;;12.00;99.90;;;;;;5088317;28;20142;-66
2022/11/13 06:11:28;;;;;;;24.65;10.43;;;11.90;99.90;;;;;;5091068;28;20094;-65
2022/11/13 06:13:55;;;;;;;23.60;9.15;;;11.90;99.90;;;;;;5074735;28;20535;-65
2022/11/13 06:16:27;;;;;;;22.42;8.60;;;11.90;99.90;;;;;;5096354;28;20145;-65
2022/11/13 06:18:58;;;;;;;40.00;9.05;;;11.80;99.90;;;;;;5097190;28;20123;-65
2022/11/13 06:21:28;;;;;;;17.58;8.32;;;11.80;99.90;;;;;;5079882;28;20454;-64
2022/11/13 06:23:56;;;;;;;28.05;9.27;;;11.70;99.90;;;;;;5098592;28;20119;-65
2022/11/13 06:26:24;;;;;;;24.73;7.78;;;11.70;99.90;;;;;;5098070;28;20058;-65
2022/11/13 06:28:51;;;;;;;21.95;9.10;;;11.70;99.90;;;;;;5097245;28;20070;-65
2022/11/13 06:31:20;;;;;;;28.20;8.20;;;11.70;99.90;;;;;;5095643;28;20124;-65
2022/11/13 06:33:47;;;;;;;20.58;7.82;;;11.70;99.90;;;;;;5093916;28;20481;-65
2022/11/13 06:36:21;;;;;;;13.55;7.60;;;11.60;99.90;;;;;;5093839;28;20119;-65
2022/11/13 06:38:48;;;;;;;24.17;7.40;;;11.70;99.90;;;;;;5078489;28;20062;-65
2022/11/13 06:41:17;;;;;;;35.05;8.65;;;11.60;99.90;;;;;;5095973;28;20056;-65
2022/11/13 06:43:44;;;;;;;28.52;7.30;;;11.60;99.90;;;;;;5094035;28;20062;-65
2022/11/13 06:46:14;;;;;;;20.23;7.13;;;11.60;99.90;;;;;;5094678;28;20506;-65
2022/11/13 06:48:40;;;;;;;24.35;7.03;;;11.50;99.90;;;;;;5091832;28;20079;-65
2022/11/13 06:51:11;;;;;;;15.98;7.50;;;11.50;99.90;;;;;;5093048;28;20040;-65
2022/11/13 06:53:37;;;;;;;17.63;6.97;;;11.50;99.90;;;;;;5072127;28;20203;-65
2022/11/13 06:56:05;;;;;;;21.98;6.88;;;11.50;99.90;;;;;;5091112;28;20054;-65
2022/11/13 06:58:32;;;;;;;14.15;7.05;;;11.40;99.90;;;;;;5090573;28;20044;-65
2022/11/13 07:01:06;;;;;;;12.52;6.28;;;11.50;99.90;;;;;;5091101;28;20135;-65
2022/11/13 07:03:33;;;;;;;12.35;6.07;;;11.50;99.90;;;;;;5091664;28;20050;-65
2022/11/13 07:06:02;;;;;;;17.10;6.80;;;11.50;99.90;;;;;;5091418;28;20074;-65
2022/11/13 07:08:29;;;;;;;19.40;6.22;;;11.50;99.90;;;;;;5091206;28;20509;-65
2022/11/13 07:10:56;;;;;;;16.83;6.43;;;11.50;99.90;;;;;;5091963;28;20131;-65
2022/11/13 07:13:24;;;;;;;17.48;5.88;;;11.50;99.90;;;;;;5091474;28;20134;-65
2022/11/13 07:15:51;;;;;;;19.98;6.20;;;11.50;99.90;;;;;;5073524;28;20135;-66
2022/11/13 07:18:18;;;;;;;9.30;5.70;;;11.40;99.90;;;;;;5090999;28;20094;-67
2022/11/13 07:20:49;;;;;;;10.35;6.47;;;11.40;99.90;;;;;;5090079;28;20449;-65
2022/11/13 07:23:16;;;;;;;13.23;7.10;;;11.40;99.90;;;;;;5090567;28;20564;-65
2022/11/13 07:25:43;;;;;;;13.90;6.10;;;11.40;99.90;;;;;;5090951;28;20044;-65
2022/11/13 07:28:10;;;;;;;13.52;5.65;;;11.40;99.90;;;;;;5090353;28;20052;-66
2022/11/13 07:30:37;;;;;;;19.52;6.05;;;11.40;99.90;;;;;;5088935;28;20459;-65
2022/11/13 07:33:03;;;;;;;14.07;6.40;;;11.40;99.90;;;;;;4736036;27;10001073;-65
2022/11/13 07:35:30;;;;;;;12.50;5.68;;;11.40;99.90;;;;;;5086890;28;20075;-66
2022/11/13 07:37:57;;;;;;;20.30;7.60;;;11.40;99.90;;;;;;5088486;28;20126;-66
2022/11/13 07:40:25;;;;;;;13.13;6.57;;;11.40;99.90;;;;;;5070171;28;20807;-66
2022/11/13 07:42:58;;;;;;;20.08;7.38;;;11.40;99.90;;;;;;5085678;28;20055;-65
2022/11/13 07:45:26;;;;;;;11.05;6.28;;;11.40;99.90;;;;;;5086619;28;20134;-65
2022/11/13 07:48:00;;;;;;;12.40;7.15;;;11.40;99.90;;;;;;5086948;28;20090;-65
2022/11/13 07:50:28;;;;;;;16.98;6.85;;;11.40;99.90;;;;;;5065328;28;20392;-65
2022/11/13 07:52:59;;;;;;;20.70;6.00;;;11.40;99.90;;;;;;5068419;28;20055;-65
2022/11/13 07:55:27;;;;;;;14.32;6.53;;;11.30;99.90;;;;;;5084650;28;20135;-65
2022/11/13 07:57:57;;;;;;;15.38;6.75;;;11.40;99.90;;;;;;5085419;28;20047;-65
2022/11/13 08:00:25;;;;;;;13.40;7.55;;;11.40;99.90;;;;;;5085882;28;20052;-65
2022/11/13 08:02:52;;;;;;;14.02;6.28;;;11.40;99.90;;;;;;5086728;28;20051;-65
2022/11/13 08:05:19;;;;;;;14.15;6.28;;;11.40;99.90;;;;;;5085413;28;20138;-65
2022/11/13 08:07:47;;;;;;;12.20;6.97;;;11.40;99.90;;;;;;5086348;28;20056;-64
2022/11/13 08:10:17;;;;;;;14.52;7.28;;;11.40;99.90;;;;;;5085989;28;20040;-64
2022/11/13 08:12:44;;;;;;;14.05;8.07;;;11.40;99.90;;;;;;5079244;28;20044;-64
2022/11/13 08:15:11;;;;;;;10.77;6.88;;;11.50;99.90;;;;;;5076057;28;20131;-64
2022/11/13 08:17:39;;;;;;;13.55;6.18;;;11.50;99.90;;;;;;5071640;28;20404;-64
2022/11/13 08:20:06;;;;;;;17.33;7.38;;;11.50;99.90;;;;;;5077907;28;20885;-64
2022/11/13 08:22:34;;;;;;;16.65;5.72;;;11.60;99.90;;;;;;5073981;28;20052;-64
2022/11/13 08:25:01;;;;;;;13.30;7.80;;;11.50;99.90;;;;;;5069928;28;20116;-64
2022/11/13 08:27:28;;;;;;;13.75;7.82;;;11.50;99.90;;;;;;5086214;28;20133;-64
2022/11/13 08:29:54;;;;;;;15.48;7.68;;;11.50;99.90;;;;;;5083985;28;20143;-64
2022/11/13 08:32:21;;;;;;;11.98;7.53;;;11.50;99.90;;;;;;5082035;28;20052;-64
2022/11/13 08:34:48;;;;;;;13.25;7.13;;;11.60;99.90;;;;;;5086450;28;20063;-65
2022/11/13 08:37:16;;;;;;;11.32;6.28;;;11.50;99.90;;;;;;5086984;28;20044;-64
2022/11/13 08:39:43;;;;;;;11.57;7.80;;;11.50;99.90;;;;;;5080253;28;20512;-64
2022/11/13 08:42:10;;;;;;;17.63;7.80;;;11.50;99.90;;;;;;5081439;28;20350;-64
2022/11/13 08:44:36;;;;;;;13.48;7.75;;;11.60;99.90;;;;;;5084190;28;20516;-65
2022/11/13 08:47:05;;;;;;;20.60;6.53;;;11.50;99.90;;;;;;5083408;28;20051;-64
2022/11/13 08:49:32;;;;;;;8.75;6.20;;;11.60;99.90;;;;;;5082370;28;20407;-65
2022/11/13 08:51:58;;;;;;;12.00;5.90;;;11.60;99.90;;;;;;5082731;28;20264;-65
2022/11/13 08:54:25;;;;;;;11.90;6.80;;;11.60;99.90;;;;;;5064685;28;20085;-64
2022/11/13 08:56:52;;;;;;;13.57;5.60;;;11.60;99.90;;;;;;5081363;28;20044;-64
2022/11/13 08:59:25;;;;;;;9.23;5.30;;;11.60;99.90;;;;;;5083571;28;20478;-64
2022/11/13 09:01:59;;;;;;;21.33;5.55;;;11.60;99.90;;;;;;5081868;28;20522;-66
2022/11/13 09:04:27;;;;;;;13.75;6.40;;;11.60;99.90;;;;;;5085037;28;20052;-65
2022/11/13 09:06:53;;;;;;;12.95;5.47;;;11.60;99.90;;;;;;5084511;28;20064;-64
2022/11/13 09:09:22;;;;;;;8.20;5.15;;;11.60;99.90;;;;;;5085037;28;20048;-64
2022/11/13 09:11:49;;;;;;;12.85;5.38;;;11.60;99.90;;;;;;5083657;28;20443;-65
2022/11/13 09:14:16;;;;;;;11.85;5.43;;;11.50;99.90;;;;;;5063527;28;20696;-64
2022/11/13 09:16:43;;;;;;;11.55;5.80;;;11.60;99.90;;;;;;5067420;28;20072;-65
2022/11/13 09:19:10;;;;;;;12.57;5.15;;;11.50;99.90;;;;;;5087970;28;20241;-63
2022/11/13 09:21:37;;;;;;;14.88;6.20;;;11.60;99.90;;;;;;5070662;28;20128;-65
2022/11/13 09:24:05;;;;;;;16.88;5.70;;;11.60;99.90;;;;;;5087643;28;20044;-64
2022/11/13 09:26:34;;;;;;;10.15;6.15;;;11.60;99.90;;;;;;5089283;28;20616;-65
2022/11/13 09:29:01;;;;;;;9.32;6.35;;;11.60;99.90;;;;;;5086565;28;20135;-64
2022/11/13 09:31:27;;;;;;;7.40;5.13;;;11.60;99.90;;;;;;5088959;28;20066;-64
2022/11/13 09:33:54;;;;;;;10.40;5.53;;;11.70;99.90;;;;;;5078937;28;20717;-65
2022/11/13 09:36:21;;;;;;;8.95;5.53;;;11.70;99.90;;;;;;5072838;28;20079;-65
2022/11/13 09:38:48;;;;;;;8.23;6.07;;;11.80;99.90;;;;;;5094000;28;20419;-64
2022/11/13 09:41:20;;;;;;;7.47;4.75;;;11.80;99.90;;;;;;5092677;28;20166;-64
2022/11/13 09:43:52;;;;;;;10.00;5.88;;;11.80;99.90;;;;;;5089842;28;20060;-64
2022/11/13 09:46:28;;;;;;;9.90;5.85;;;11.90;99.90;;;;;;5090377;28;20578;-63
2022/11/13 09:48:57;;;;;;;9.82;5.78;;;11.90;99.90;;;;;;5091820;28;20214;-64
2022/11/13 09:51:32;;;;;;;10.35;5.60;;;12.00;99.90;;;;;;5070293;28;20052;-64
2022/11/13 09:54:01;;;;;;;8.40;5.45;;;12.00;99.90;;;;;;5081553;28;20032;-62
2022/11/13 09:56:45;;;;;;;10.48;6.05;;;12.10;99.90;;;;;;5068843;28;20528;-64
2022/11/13 09:59:15;;;;;;;7.53;4.78;;;12.10;99.90;;;;;;5082185;28;20255;-64
2022/11/13 10:02:09;;;;;;;8.07;5.38;;;12.10;99.90;;;;;;5090681;28;20052;-64
2022/11/13 10:04:57;;;;;;;8.63;5.35;;;12.20;99.90;;;;;;5089588;28;20127;-64
2022/11/13 10:07:53;;;;;;;8.38;4.78;;;12.20;99.90;;;;;;5069311;28;20090;-64
2022/11/13 10:10:57;;;;;;;6.88;4.50;;;12.30;99.90;;;;;;5089904;28;20052;-64
2022/11/13 10:13:28;;;;;;;5.40;4.07;;;12.40;99.90;;;;;;5091286;28;20048;-64
2022/11/13 10:16:05;;;;;;;5.20;3.80;;;12.50;99.90;;;;;;5090423;28;20046;-64
2022/11/13 10:18:34;;;;;;;8.77;4.38;;;12.50;99.90;;;;;;5091186;28;20051;-65
2022/11/13 10:21:25;;;;;;;6.90;4.28;;;12.50;99.90;;;;;;5086867;28;20040;-66
2022/11/13 10:23:55;;;;;;;6.28;4.25;;;12.50;99.90;;;;;;5089609;28;20070;-65
2022/11/13 10:26:28;;;;;;;5.47;4.28;;;12.60;99.90;;;;;;5069678;28;20570;-64
2022/11/13 10:29:01;;;;;;;7.90;5.32;;;12.60;99.90;;;;;;5072727;28;20045;-64
2022/11/13 10:31:28;;;;;;;6.13;4.68;;;12.60;99.90;;;;;;5073462;28;20063;-64
2022/11/13 10:33:55;;;;;;;11.25;4.45;;;12.60;99.90;;;;;;5091037;28;20579;-66
2022/11/13 10:36:33;;;;;;;6.28;4.88;;;12.60;99.90;;;;;;5088798;28;20058;-64
2022/11/13 10:39:05;;;;;;;6.35;4.35;;;12.70;99.90;;;;;;5090855;28;20494;-64
2022/11/13 10:41:32;;;;;;;5.72;4.45;;;12.70;99.90;;;;;;5089678;28;20155;-65
2022/11/13 10:44:31;;;;;;;8.48;5.22;;;12.70;99.90;;;;;;5089561;28;20147;-65
2022/11/13 10:47:13;;;;;;;4.82;3.92;;;12.80;99.90;;;;;;5090747;28;20447;-64
2022/11/13 10:49:40;;;;;;;5.68;4.05;;;12.80;99.90;;;;;;5090375;28;20054;-65
2022/11/13 10:52:26;;;;;;;6.10;4.25;;;12.90;99.90;;;;;;5089323;28;20048;-63
2022/11/13 10:55:30;;;;;;;7.07;4.57;;;13.00;99.90;;;;;;5090312;28;20082;-63
2022/11/13 10:57:58;;;;;;;5.53;4.32;;;13.00;99.90;;;;;;5081826;28;20552;-63
2022/11/13 11:00:34;;;;;;;8.63;4.78;;;13.10;99.90;;;;;;5091180;28;20076;-64
2022/11/13 11:03:00;;;;;;;6.45;5.18;;;13.10;99.90;;;;;;5090810;28;20459;-63
2022/11/13 11:05:27;;;;;;;12.88;5.55;;;13.20;99.90;;;;;;5090482;28;20097;-65
2022/11/13 11:07:55;;;;;;;8.27;5.25;;;13.20;99.90;;;;;;5089726;28;20085;-65
2022/11/13 11:10:32;;;;;;;8.30;5.25;;;13.20;99.90;;;;;;5090175;28;20048;-64
2022/11/13 11:13:09;;;;;;;7.40;4.60;;;13.20;99.90;;;;;;5089514;28;20537;-64
2022/11/13 11:15:39;;;;;;;17.27;7.03;;;13.20;99.90;;;;;;5089229;28;20036;-63
2022/11/13 11:18:21;;;;;;;6.55;5.25;;;13.30;99.90;;;;;;5090640;28;20050;-64
2022/11/13 11:20:52;;;;;;;7.40;5.78;;;13.30;99.90;;;;;;5089433;28;20036;-65
2022/11/13 11:23:36;;;;;;;7.75;5.72;;;13.30;99.90;;;;;;5089640;28;20460;-64
2022/11/13 11:26:16;;;;;;;7.75;5.88;;;13.30;99.90;;;;;;5073365;28;20051;-64
2022/11/13 11:28:44;;;;;;;12.35;7.05;;;13.30;99.90;;;;;;5057568;28;20120;-64
2022/11/13 11:31:25;;;;;;;8.45;6.20;;;13.30;99.90;;;;;;5073362;28;20040;-64
2022/11/13 11:34:21;;;;;;;10.43;6.50;;;13.30;99.90;;;;;;5077514;28;20056;-64
2022/11/13 11:37:18;;;;;;;8.60;7.10;;;13.30;99.90;;;;;;5080911;28;20082;-63
2022/11/13 11:39:50;;;;;;;10.48;6.40;;;13.20;99.90;;;;;;5071349;28;20082;-64
2022/11/13 11:42:23;;;;;;;7.30;5.78;;;13.10;99.90;;;;;;5067516;28;20051;-64
2022/11/13 11:45:08;;;;;;;9.43;5.53;;;13.10;99.90;;;;;;5082200;28;20143;-64
2022/11/13 11:47:34;;;;;;;17.80;6.20;;;13.00;99.90;;;;;;5089279;28;20052;-64
2022/11/13 11:50:02;;;;;;;10.30;6.82;;;13.00;99.90;;;;;;5087766;28;20048;-65
2022/11/13 11:52:47;;;;;;;8.00;5.82;;;13.00;99.90;;;;;;5087597;28;20040;-63
2022/11/13 11:55:37;;;;;;;9.95;7.00;;;12.90;99.90;;;;;;5089386;28;20112;-64
2022/11/13 11:58:23;;;;;;;12.00;7.53;;;12.90;99.90;;;;;;5087509;28;20225;-63
2022/11/13 12:00:51;;;;;;;9.82;7.03;;;13.00;99.90;;;;;;5087869;28;20541;-65
2022/11/13 12:03:28;;;;;;;10.80;7.25;;;12.90;99.90;;;;;;5066454;28;20348;-65
2022/11/13 12:06:14;;;;;;;9.77;7.20;;;12.90;99.90;;;;;;5085387;28;20044;-65
2022/11/13 12:08:40;;;;;;;9.27;7.03;;;12.90;99.90;;;;;;5088446;28;20044;-65
2022/11/13 12:11:18;;;;;;;15.25;7.88;;;12.90;99.90;;;;;;5088070;28;20442;-64
2022/11/13 12:13:49;;;;;;;10.82;8.40;;;13.00;99.90;;;;;;5086925;28;20059;-64
2022/11/13 12:16:22;;;;;;;11.63;7.68;;;13.00;99.90;;;;;;5086997;28;20048;-64
2022/11/13 12:19:03;;;;;;;11.05;7.80;;;13.00;99.90;;;;;;5088158;28;20040;-64
2022/11/13 12:21:36;;;;;;;13.88;8.93;;;13.00;99.90;;;;;;5087332;28;20044;-64
2022/11/13 12:24:06;;;;;;;17.10;9.80;;;13.00;99.90;;;;;;5088835;28;20478;-64
2022/11/13 12:27:08;;;;;;;15.05;9.95;;;13.10;99.90;;;;;;5089428;28;20135;-65
2022/11/13 12:29:56;;;;;;;16.77;9.90;;;13.00;99.90;;;;;;5085282;28;20451;-64
2022/11/13 12:32:47;;;;;;;14.55;10.13;;;13.10;99.90;;;;;;5069167;28;20132;-64
2022/11/13 12:35:22;;;;;;;14.65;10.20;;;13.10;99.90;;;;;;5088691;28;20484;-63
2022/11/13 12:37:58;;;;;;;15.55;11.15;;;13.20;99.90;;;;;;5088000;28;20051;-64
2022/11/13 12:40:38;;;;;;;17.95;12.35;;;13.30;99.90;;;;;;5088561;28;20081;-64
2022/11/13 12:43:22;;;;;;;13.15;10.25;;;13.30;99.90;;;;;;5087761;28;20097;-65
2022/11/13 12:45:51;;;;;;;14.88;10.43;;;13.40;99.90;;;;;;5085182;28;20047;-65
2022/11/13 12:48:17;;;;;;;17.15;11.68;;;13.50;99.90;;;;;;5071042;28;20480;-64